ΕΜΥ, Εθνική Μετεωρολογική Υπηρεσία - Δελτία Καιρού, Προγνώσεις

ΑΕΡΟΝΑΥΤΙΛΙΑ

GREEK AIRPORTS CODES

LGIR 040520Z 16008KT 9999 FEW020 08/01 Q1019 NOSIG =

EUROPEAN AIRPORTS CODES

EHAM 040525Z 26006KT 9000 FEW020 BKN030 05/05 Q1034 NOSIG=